Skip Navigation Links
NOAA logo - Click to go to the NOAA homepage
NOAA's National Weather Service
Alaska Aviation Weather Unit
  NWS logo - Click to go to the NWS homepage
Left Navbar Graphic     23 AKDT = 07 GMT

   
NOAA is celebrating 200 years of science, service, and stewardship. Visit the NOAA 200th celebration Web site to learn more.
USA.gov is the U.S. Government's official Web portal to all Federal, state and local government Web resources and services.
Facebook
NWS on Facebook

Important Change Regarding the AAWU Web Presence

 

Over the last several months, the AAWU has been working to navigate its webpages to a nationally supported server. Security, as well as other needs, have necessitated the change.  In the process, we have made an effort to enhance the functionality of our website, as well as some of our products. As of June 20, 2017, aawu.arh.noaa.gov will be discontinued. The new AAWU web address is weather.gov/aawu. It is now live and will run in-parallel with the old site until it is discontinued. Please send any feedback or questions regarding the new webpages to nws.ar.aawu.webauthors@noaa.gov.  Thank you for your patience during this time of transition.
AAWU Home :: Display TAF Add Bookmark
METAR PAEH 240155Z AUTO 16013KT 4SM -RA BKN003 05/04 A2977=

PAEH 240239Z AUTO 17016G25KT 1SM -SHRA BR OVC003 05/04 A2973=

METAR PAEH 240255Z AUTO 18021G28KT 1/2SM -SHRA FG VV003 04/04 A2973=

PAEH 240259Z AUTO 18021G28KT 1/2SM -SHRA FG VV002 04/04 A2972=

PAEH 240320Z AUTO 19020KT 3/4SM -SHRA BR BKN002 04/04 A2973=

METAR PAEH 240355Z AUTO 20021G29KT 3/4SM -RA BR BKN003 05/04 A2972=

PAEH 240400Z AUTO 20020G29KT 160V220 1SM -RA BR BKN003 05/04 A2972=

PAEH 240420Z AUTO 20021G32KT 1SM -RA BR OVC004 04/04 A2972=

PAEH 240440Z AUTO 19022G32KT 1 1/4SM -RA BR OVC004 05/04 A2971=

METAR PAEH 240455Z AUTO 18021G35KT 1 1/4SM -RA BR OVC004 05/04 A2971=

METAR PAEH 240555Z AUTO 20021G30KT 1SM -RA BR BKN003 04/04 A2969=

PAEH 240620Z AUTO 20022G30KT 160V230 3/4SM -RA BR BKN003 04/04
A2969=

PAEH 240640Z AUTO 21019G28KT 1SM DZ BR BKN003 04/04 A2968=

METAR PAEH 240655Z AUTO 20019G26KT 1 1/2SM DZ BR BKN003 04/04 A2969=

PAEH 240720Z AUTO 19020G29KT 140V210 3/4SM -RA BR OVC003 04/04
A2970=

PAEH 240740Z AUTO 19020G32KT 3/4SM -RA BR BKN002 04/04 A2969=


NOAA's National Weather Service
Alaska Aviation Weather Unit
6930 Sand Lake Road
Anchorage, AK 99502-1845
Disclaimer
Credits
Glossary
Privacy Policy
About Us
Career Opportunities
Contact AAWU Internet Services Site last modified: April, 17th 2012